sensor_id;sensor_type;location;lat;lon;timestamp;pressure;altitude;pressure_sealevel;temperature;humidity
58239;BME280;44037;55.638;37.356;2022-11-20T00:01:53;99113.19;;;-1.85;94.65
58239;BME280;44037;55.638;37.356;2022-11-20T00:04:20;99120.72;;;-1.87;94.27
58239;BME280;44037;55.638;37.356;2022-11-20T00:06:49;99112.09;;;-1.90;93.96
58239;BME280;44037;55.638;37.356;2022-11-20T00:09:16;99114.63;;;-1.90;94.83
58239;BME280;44037;55.638;37.356;2022-11-20T00:11:43;99112.94;;;-1.90;94.24
58239;BME280;44037;55.638;37.356;2022-11-20T00:14:10;99113.84;;;-1.89;94.63
58239;BME280;44037;55.638;37.356;2022-11-20T00:16:37;99121.47;;;-1.89;94.67
58239;BME280;44037;55.638;37.356;2022-11-20T00:19:04;99118.91;;;-1.89;94.22
58239;BME280;44037;55.638;37.356;2022-11-20T00:21:31;99121.59;;;-1.86;95.02
58239;BME280;44037;55.638;37.356;2022-11-20T00:24:00;99123.44;;;-1.83;94.56
58239;BME280;44037;55.638;37.356;2022-11-20T00:26:28;99123.44;;;-1.83;94.74
58239;BME280;44037;55.638;37.356;2022-11-20T00:28:56;99119.22;;;-1.83;94.61
58239;BME280;44037;55.638;37.356;2022-11-20T00:31:24;99127.00;;;-1.80;95.21
58239;BME280;44037;55.638;37.356;2022-11-20T00:33:52;99121.19;;;-1.77;94.98
58239;BME280;44037;55.638;37.356;2022-11-20T00:36:20;99121.19;;;-1.77;94.76
58239;BME280;44037;55.638;37.356;2022-11-20T00:38:51;99128.06;;;-1.75;94.73
58239;BME280;44037;55.638;37.356;2022-11-20T00:41:20;99121.25;;;-1.76;95.17
58239;BME280;44037;55.638;37.356;2022-11-20T00:43:47;99129.69;;;-1.77;94.89
58239;BME280;44037;55.638;37.356;2022-11-20T00:46:15;99112.78;;;-1.76;94.70
58239;BME280;44037;55.638;37.356;2022-11-20T00:48:43;99118.66;;;-1.77;94.56
58239;BME280;44037;55.638;37.356;2022-11-20T00:51:12;99128.00;;;-1.76;95.07
58239;BME280;44037;55.638;37.356;2022-11-20T00:53:40;99121.34;;;-1.74;94.82
58239;BME280;44037;55.638;37.356;2022-11-20T00:56:10;99123.09;;;-1.73;94.66
58239;BME280;44037;55.638;37.356;2022-11-20T00:58:40;99118.88;;;-1.73;95.11
58239;BME280;44037;55.638;37.356;2022-11-20T01:01:08;99122.31;;;-1.72;94.97
58239;BME280;44037;55.638;37.356;2022-11-20T01:03:37;99128.31;;;-1.70;94.64
58239;BME280;44037;55.638;37.356;2022-11-20T01:06:06;99121.56;;;-1.70;94.65
58239;BME280;44037;55.638;37.356;2022-11-20T01:08:34;99115.69;;;-1.68;94.80
58239;BME280;44037;55.638;37.356;2022-11-20T01:11:04;99119.09;;;-1.68;95.06
58239;BME280;44037;55.638;37.356;2022-11-20T01:13:32;99114.09;;;-1.66;94.68
58239;BME280;44037;55.638;37.356;2022-11-20T01:16:09;99120.06;;;-1.66;94.80
58239;BME280;44037;55.638;37.356;2022-11-20T01:18:37;99122.69;;;-1.64;94.90
58239;BME280;44037;55.638;37.356;2022-11-20T01:21:06;99123.53;;;-1.64;94.56
58239;BME280;44037;55.638;37.356;2022-11-20T01:23:34;99125.22;;;-1.64;94.42
58239;BME280;44037;55.638;37.356;2022-11-20T01:26:02;99126.09;;;-1.64;94.65
58239;BME280;44037;55.638;37.356;2022-11-20T01:28:30;99123.59;;;-1.62;94.30
58239;BME280;44037;55.638;37.356;2022-11-20T01:30:57;99122.00;;;-1.60;94.25
58239;BME280;44037;55.638;37.356;2022-11-20T01:33:26;99119.41;;;-1.62;94.29
58239;BME280;44037;55.638;37.356;2022-11-20T01:36:02;99127.66;;;-1.66;94.08
58239;BME280;44037;55.638;37.356;2022-11-20T01:38:30;99130.72;;;-1.73;93.65
58239;BME280;44037;55.638;37.356;2022-11-20T01:40:57;99141.56;;;-1.76;94.17
58239;BME280;44037;55.638;37.356;2022-11-20T01:43:24;99129.22;;;-1.86;93.49
58239;BME280;44037;55.638;37.356;2022-11-20T01:46:06;99144.22;;;-1.91;93.86
58239;BME280;44037;55.638;37.356;2022-11-20T01:48:44;99148.28;;;-1.94;93.92
58239;BME280;44037;55.638;37.356;2022-11-20T01:51:16;99137.88;;;-1.99;93.60
58239;BME280;44037;55.638;37.356;2022-11-20T01:53:43;99144.63;;;-1.99;93.42
58239;BME280;44037;55.638;37.356;2022-11-20T01:56:12;99148.44;;;-2.08;93.39
58239;BME280;44037;55.638;37.356;2022-11-20T01:58:44;99149.84;;;-2.13;93.29
58239;BME280;44037;55.638;37.356;2022-11-20T02:01:14;99145.50;;;-2.16;93.29
58239;BME280;44037;55.638;37.356;2022-11-20T02:03:43;99165.09;;;-2.13;93.32
58239;BME280;44037;55.638;37.356;2022-11-20T02:06:15;99166.03;;;-2.11;93.30
58239;BME280;44037;55.638;37.356;2022-11-20T02:08:43;99163.66;;;-2.08;93.34
58239;BME280;44037;55.638;37.356;2022-11-20T02:11:10;99165.59;;;-2.04;93.48
58239;BME280;44037;55.638;37.356;2022-11-20T02:13:39;99173.34;;;-2.01;93.71
58239;BME280;44037;55.638;37.356;2022-11-20T02:16:11;99167.47;;;-1.99;93.61
58239;BME280;44037;55.638;37.356;2022-11-20T02:18:38;99177.78;;;-1.96;94.03
58239;BME280;44037;55.638;37.356;2022-11-20T02:21:19;99170.25;;;-1.95;93.78
58239;BME280;44037;55.638;37.356;2022-11-20T02:24:11;99175.47;;;-1.92;93.56
58239;BME280;44037;55.638;37.356;2022-11-20T02:26:44;99182.41;;;-1.89;93.50
58239;BME280;44037;55.638;37.356;2022-11-20T02:29:14;99182.25;;;-1.92;92.93
58239;BME280;44037;55.638;37.356;2022-11-20T02:31:43;99183.91;;;-1.93;93.30
58239;BME280;44037;55.638;37.356;2022-11-20T02:34:10;99187.31;;;-1.92;93.59
58239;BME280;44037;55.638;37.356;2022-11-20T02:36:39;99189.69;;;-1.95;92.78
58239;BME280;44037;55.638;37.356;2022-11-20T02:39:10;99188.66;;;-1.99;93.11
58239;BME280;44037;55.638;37.356;2022-11-20T02:41:38;99192.00;;;-2.00;93.34
58239;BME280;44037;55.638;37.356;2022-11-20T02:44:05;99190.41;;;-1.98;92.98
58239;BME280;44037;55.638;37.356;2022-11-20T02:46:33;99187.78;;;-1.99;93.36
58239;BME280;44037;55.638;37.356;2022-11-20T02:49:01;99187.94;;;-1.96;93.33
58239;BME280;44037;55.638;37.356;2022-11-20T02:51:29;99191.28;;;-1.97;93.36
58239;BME280;44037;55.638;37.356;2022-11-20T02:53:56;99191.44;;;-1.94;93.30
58239;BME280;44037;55.638;37.356;2022-11-20T02:56:25;99189.53;;;-1.98;92.65
58239;BME280;44037;55.638;37.356;2022-11-20T02:58:52;99201.44;;;-1.97;93.31
58239;BME280;44037;55.638;37.356;2022-11-20T03:01:19;99198.09;;;-1.96;92.98
58239;BME280;44037;55.638;37.356;2022-11-20T03:03:47;99198.84;;;-1.99;92.48
58239;BME280;44037;55.638;37.356;2022-11-20T03:06:15;99192.00;;;-2.00;92.87
58239;BME280;44037;55.638;37.356;2022-11-20T03:08:42;99198.84;;;-1.99;92.85
58239;BME280;44037;55.638;37.356;2022-11-20T03:11:09;99198.84;;;-1.99;92.91
58239;BME280;44037;55.638;37.356;2022-11-20T03:13:38;99199.53;;;-2.02;92.63
58239;BME280;44037;55.638;37.356;2022-11-20T03:16:10;99202.88;;;-2.03;92.40
58239;BME280;44037;55.638;37.356;2022-11-20T03:18:38;99194.31;;;-2.05;92.55
58239;BME280;44037;55.638;37.356;2022-11-20T03:21:05;99200.06;;;-2.07;92.70
58239;BME280;44037;55.638;37.356;2022-11-20T03:23:33;99205.16;;;-2.07;91.95
58239;BME280;44037;55.638;37.356;2022-11-20T03:26:12;99196.50;;;-2.11;92.46
58239;BME280;44037;55.638;37.356;2022-11-20T03:28:42;99198.34;;;-2.08;92.70
58239;BME280;44037;55.638;37.356;2022-11-20T03:31:11;99209.53;;;-2.05;92.41
58239;BME280;44037;55.638;37.356;2022-11-20T03:33:39;99210.56;;;-2.01;92.62
58239;BME280;44037;55.638;37.356;2022-11-20T03:36:09;99214.06;;;-1.99;92.47
58239;BME280;44037;55.638;37.356;2022-11-20T03:38:36;99211.69;;;-1.96;92.35
58239;BME280;44037;55.638;37.356;2022-11-20T03:41:05;99209.22;;;-1.94;92.27
58239;BME280;44037;55.638;37.356;2022-11-20T03:43:33;99204.94;;;-1.95;92.28
58239;BME280;44037;55.638;37.356;2022-11-20T03:46:02;99216.59;;;-1.99;91.95
58239;BME280;44037;55.638;37.356;2022-11-20T03:48:29;99217.16;;;-2.05;91.87
58239;BME280;44037;55.638;37.356;2022-11-20T03:51:07;99221.91;;;-2.11;91.88
58239;BME280;44037;55.638;37.356;2022-11-20T03:53:34;99220.06;;;-2.13;92.00
58239;BME280;44037;55.638;37.356;2022-11-20T03:56:01;99218.31;;;-2.14;91.85
58239;BME280;44037;55.638;37.356;2022-11-20T03:58:29;99224.13;;;-2.17;91.55
58239;BME280;44037;55.638;37.356;2022-11-20T04:00:56;99228.16;;;-2.21;91.37
58239;BME280;44037;55.638;37.356;2022-11-20T04:03:25;99225.47;;;-2.24;91.49
58239;BME280;44037;55.638;37.356;2022-11-20T04:05:52;99232.97;;;-2.25;91.35
58239;BME280;44037;55.638;37.356;2022-11-20T04:08:19;99237.25;;;-2.24;91.69
58239;BME280;44037;55.638;37.356;2022-11-20T04:10:46;99234.91;;;-2.21;91.82
58239;BME280;44037;55.638;37.356;2022-11-20T04:13:13;99238.41;;;-2.19;92.03
58239;BME280;44037;55.638;37.356;2022-11-20T04:15:40;99244.44;;;-2.17;92.12
58239;BME280;44037;55.638;37.356;2022-11-20T04:18:07;99254.91;;;-2.11;91.93
58239;BME280;44037;55.638;37.356;2022-11-20T04:20:36;99247.47;;;-2.08;91.93
58239;BME280;44037;55.638;37.356;2022-11-20T04:23:03;99252.69;;;-2.05;92.10
58239;BME280;44037;55.638;37.356;2022-11-20T04:25:30;99253.56;;;-2.04;92.16
58239;BME280;44037;55.638;37.356;2022-11-20T04:27:57;99266.34;;;-2.03;91.97
58239;BME280;44037;55.638;37.356;2022-11-20T04:30:24;99256.09;;;-2.04;91.68
58239;BME280;44037;55.638;37.356;2022-11-20T04:32:51;99251.91;;;-2.04;91.56
58239;BME280;44037;55.638;37.356;2022-11-20T04:35:18;99249.28;;;-2.05;91.81
58239;BME280;44037;55.638;37.356;2022-11-20T04:37:47;99257.59;;;-2.08;91.69
58239;BME280;44037;55.638;37.356;2022-11-20T04:40:14;99258.41;;;-2.09;91.30
58239;BME280;44037;55.638;37.356;2022-11-20T04:42:41;99261.81;;;-2.08;91.59
58239;BME280;44037;55.638;37.356;2022-11-20T04:45:09;99260.16;;;-2.08;91.36
58239;BME280;44037;55.638;37.356;2022-11-20T04:47:36;99272.13;;;-2.05;91.88
58239;BME280;44037;55.638;37.356;2022-11-20T04:50:03;99278.22;;;-2.02;91.74
58239;BME280;44037;55.638;37.356;2022-11-20T04:52:30;99289.22;;;-2.03;91.68
58239;BME280;44037;55.638;37.356;2022-11-20T04:54:59;99290.94;;;-2.02;91.37
58239;BME280;44037;55.638;37.356;2022-11-20T04:57:26;99301.97;;;-2.01;91.65
58239;BME280;44037;55.638;37.356;2022-11-20T04:59:53;99295.31;;;-1.99;91.21
58239;BME280;44037;55.638;37.356;2022-11-20T05:02:20;99302.28;;;-1.95;91.17
58239;BME280;44037;55.638;37.356;2022-11-20T05:04:47;99296.34;;;-1.95;91.57
58239;BME280;44037;55.638;37.356;2022-11-20T05:07:14;99315.94;;;-1.93;91.06
58239;BME280;44037;55.638;37.356;2022-11-20T05:09:41;99314.19;;;-1.94;90.87
58239;BME280;44037;55.638;37.356;2022-11-20T05:12:10;99303.97;;;-1.95;90.63
58239;BME280;44037;55.638;37.356;2022-11-20T05:14:37;99312.31;;;-1.98;90.67
58239;BME280;44037;55.638;37.356;2022-11-20T05:17:04;99318.25;;;-1.97;90.80
58239;BME280;44037;55.638;37.356;2022-11-20T05:19:31;99307.22;;;-1.98;91.15
58239;BME280;44037;55.638;37.356;2022-11-20T05:21:58;99308.09;;;-1.97;90.73
58239;BME280;44037;55.638;37.356;2022-11-20T05:24:25;99313.09;;;-1.99;90.66
58239;BME280;44037;55.638;37.356;2022-11-20T05:26:52;99319.75;;;-2.01;91.06
58239;BME280;44037;55.638;37.356;2022-11-20T05:29:20;99318.84;;;-2.02;91.05
58239;BME280;44037;55.638;37.356;2022-11-20T05:31:48;99329.13;;;-2.00;90.79
58239;BME280;44037;55.638;37.356;2022-11-20T05:34:15;99333.41;;;-1.99;91.03
58239;BME280;44037;55.638;37.356;2022-11-20T05:36:42;99334.19;;;-2.00;90.82
58239;BME280;44037;55.638;37.356;2022-11-20T05:39:09;99336.75;;;-2.00;90.61
58239;BME280;44037;55.638;37.356;2022-11-20T05:41:36;99340.25;;;-1.98;91.05
58239;BME280;44037;55.638;37.356;2022-11-20T05:44:03;99336.13;;;-1.96;91.11
58239;BME280;44037;55.638;37.356;2022-11-20T05:46:32;99334.44;;;-1.95;90.59
58239;BME280;44037;55.638;37.356;2022-11-20T05:48:59;99340.47;;;-1.93;90.59
58239;BME280;44037;55.638;37.356;2022-11-20T05:51:26;99341.19;;;-1.96;90.88
58239;BME280;44037;55.638;37.356;2022-11-20T05:53:55;99343.81;;;-1.94;90.73
58239;BME280;44037;55.638;37.356;2022-11-20T05:56:22;99352.41;;;-1.92;90.66
58239;BME280;44037;55.638;37.356;2022-11-20T05:58:50;99360.09;;;-1.91;90.40
58239;BME280;44037;55.638;37.356;2022-11-20T06:01:18;99361.06;;;-1.89;90.29
58239;BME280;44037;55.638;37.356;2022-11-20T06:03:47;99362.81;;;-1.88;90.55
58239;BME280;44037;55.638;37.356;2022-11-20T06:06:17;99371.38;;;-1.86;90.59
58239;BME280;44037;55.638;37.356;2022-11-20T06:08:44;99369.69;;;-1.85;90.69
58239;BME280;44037;55.638;37.356;2022-11-20T06:11:13;99385.97;;;-1.81;90.33
58239;BME280;44037;55.638;37.356;2022-11-20T06:13:40;99394.66;;;-1.78;90.16
58239;BME280;44037;55.638;37.356;2022-11-20T06:16:08;99389.72;;;-1.75;90.53
58239;BME280;44037;55.638;37.356;2022-11-20T06:18:36;99388.16;;;-1.73;90.05
58239;BME280;44037;55.638;37.356;2022-11-20T06:21:14;99389.09;;;-1.71;90.21
58239;BME280;44037;55.638;37.356;2022-11-20T06:23:43;99394.19;;;-1.71;90.00
58239;BME280;44037;55.638;37.356;2022-11-20T06:26:12;99405.22;;;-1.70;89.66
58239;BME280;44037;55.638;37.356;2022-11-20T06:28:40;99403.63;;;-1.68;89.90
58239;BME280;44037;55.638;37.356;2022-11-20T06:31:09;99406.28;;;-1.66;89.52
58239;BME280;44037;55.638;37.356;2022-11-20T06:33:36;99405.56;;;-1.64;89.40
58239;BME280;44037;55.638;37.356;2022-11-20T06:36:05;99401.50;;;-1.60;89.47
58239;BME280;44037;55.638;37.356;2022-11-20T06:38:32;99397.41;;;-1.58;88.85
58239;BME280;44037;55.638;37.356;2022-11-20T06:40:59;99394.13;;;-1.56;89.05
58239;BME280;44037;55.638;37.356;2022-11-20T06:43:28;99400.28;;;-1.52;88.76
58239;BME280;44037;55.638;37.356;2022-11-20T06:45:57;99388.44;;;-1.51;88.76
58239;BME280;44037;55.638;37.356;2022-11-20T06:48:26;99379.28;;;-1.48;88.80
58239;BME280;44037;55.638;37.356;2022-11-20T06:50:54;99385.34;;;-1.46;88.75
58239;BME280;44037;55.638;37.356;2022-11-20T06:53:23;99380.44;;;-1.43;88.24
58239;BME280;44037;55.638;37.356;2022-11-20T06:55:51;99396.63;;;-1.41;88.17
58239;BME280;44037;55.638;37.356;2022-11-20T06:58:19;99388.28;;;-1.38;88.44
58239;BME280;44037;55.638;37.356;2022-11-20T07:00:46;99391.78;;;-1.36;88.02
58239;BME280;44037;55.638;37.356;2022-11-20T07:03:13;99398.69;;;-1.33;88.25
58239;BME280;44037;55.638;37.356;2022-11-20T07:05:40;99409.81;;;-1.31;87.92
58239;BME280;44037;55.638;37.356;2022-11-20T07:08:07;99393.69;;;-1.32;88.15
58239;BME280;44037;55.638;37.356;2022-11-20T07:10:36;99403.06;;;-1.31;87.76
58239;BME280;44037;55.638;37.356;2022-11-20T07:13:03;99399.81;;;-1.28;87.47
58239;BME280;44037;55.638;37.356;2022-11-20T07:15:32;99396.63;;;-1.24;88.19
58239;BME280;44037;55.638;37.356;2022-11-20T07:17:59;99400.13;;;-1.22;88.07
58239;BME280;44037;55.638;37.356;2022-11-20T07:20:27;99404.44;;;-1.21;87.18
58239;BME280;44037;55.638;37.356;2022-11-20T07:22:54;99417.31;;;-1.18;87.67
58239;BME280;44037;55.638;37.356;2022-11-20T07:25:22;99414.03;;;-1.15;87.52
58239;BME280;44037;55.638;37.356;2022-11-20T07:27:50;99416.59;;;-1.15;87.26
58239;BME280;44037;55.638;37.356;2022-11-20T07:30:18;99414.03;;;-1.15;86.98
58239;BME280;44037;55.638;37.356;2022-11-20T07:32:46;99413.31;;;-1.13;86.73
58239;BME280;44037;55.638;37.356;2022-11-20T07:35:13;99419.38;;;-1.11;87.00
58239;BME280;44037;55.638;37.356;2022-11-20T07:37:40;99416.25;;;-1.05;86.75
58239;BME280;44037;55.638;37.356;2022-11-20T07:40:08;99412.22;;;-1.01;86.87
58239;BME280;44037;55.638;37.356;2022-11-20T07:42:35;99416.66;;;-0.97;86.67
58239;BME280;44037;55.638;37.356;2022-11-20T07:45:04;99419.31;;;-0.96;86.53
58239;BME280;44037;55.638;37.356;2022-11-20T07:47:35;99418.56;;;-0.93;86.18
58239;BME280;44037;55.638;37.356;2022-11-20T07:50:02;99425.47;;;-0.90;86.47
58239;BME280;44037;55.638;37.356;2022-11-20T07:52:29;99425.59;;;-0.89;85.76
58239;BME280;44037;55.638;37.356;2022-11-20T07:54:56;99421.41;;;-0.87;86.08
58239;BME280;44037;55.638;37.356;2022-11-20T07:57:24;99421.53;;;-0.85;86.33
58239;BME280;44037;55.638;37.356;2022-11-20T07:59:51;99418.31;;;-0.81;85.94
58239;BME280;44037;55.638;37.356;2022-11-20T08:02:19;99428.59;;;-0.80;86.09
58239;BME280;44037;55.638;37.356;2022-11-20T08:04:46;99424.53;;;-0.76;86.05
58239;BME280;44037;55.638;37.356;2022-11-20T08:07:13;99420.47;;;-0.72;86.17
58239;BME280;44037;55.638;37.356;2022-11-20T08:09:40;99435.97;;;-0.68;86.24
58239;BME280;44037;55.638;37.356;2022-11-20T08:12:08;99447.97;;;-0.65;86.07
58239;BME280;44037;55.638;37.356;2022-11-20T08:14:53;99458.28;;;-0.62;85.89
58239;BME280;44037;55.638;37.356;2022-11-20T08:17:23;99445.66;;;-0.60;85.70
58239;BME280;44037;55.638;37.356;2022-11-20T08:19:50;99438.91;;;-0.60;86.12
58239;BME280;44037;55.638;37.356;2022-11-20T08:22:17;99445.72;;;-0.59;85.53
58239;BME280;44037;55.638;37.356;2022-11-20T08:24:46;99454.25;;;-0.58;85.78
58239;BME280;44037;55.638;37.356;2022-11-20T08:27:13;99455.19;;;-0.56;85.94
58239;BME280;44037;55.638;37.356;2022-11-20T08:29:40;99463.78;;;-0.54;85.87
58239;BME280;44037;55.638;37.356;2022-11-20T08:32:07;99470.56;;;-0.55;85.75
58239;BME280;44037;55.638;37.356;2022-11-20T08:34:36;99461.34;;;-0.53;85.84
58239;BME280;44037;55.638;37.356;2022-11-20T08:37:03;99461.34;;;-0.53;85.47
58239;BME280;44037;55.638;37.356;2022-11-20T08:39:30;99460.53;;;-0.52;85.70
58239;BME280;44037;55.638;37.356;2022-11-20T08:41:57;99463.22;;;-0.49;85.72
58239;BME280;44037;55.638;37.356;2022-11-20T08:44:24;99470.84;;;-0.49;85.20
58239;BME280;44037;55.638;37.356;2022-11-20T08:46:51;99474.19;;;-0.50;85.26
58239;BME280;44037;55.638;37.356;2022-11-20T08:49:18;99477.63;;;-0.49;85.21
58239;BME280;44037;55.638;37.356;2022-11-20T08:51:46;99481.03;;;-0.49;85.17
58239;BME280;44037;55.638;37.356;2022-11-20T08:54:17;99489.63;;;-0.47;84.92
58239;BME280;44037;55.638;37.356;2022-11-20T08:56:47;99488.84;;;-0.45;84.79
58239;BME280;44037;55.638;37.356;2022-11-20T08:59:14;99498.84;;;-0.49;84.78
58239;BME280;44037;55.638;37.356;2022-11-20T09:01:41;99506.41;;;-0.50;83.96
58239;BME280;44037;55.638;37.356;2022-11-20T09:04:08;99516.44;;;-0.53;84.53
58239;BME280;44037;55.638;37.356;2022-11-20T09:06:35;99517.97;;;-0.57;84.58
58239;BME280;44037;55.638;37.356;2022-11-20T09:09:04;99518.59;;;-0.61;84.55
58239;BME280;44037;55.638;37.356;2022-11-20T09:11:31;99523.53;;;-0.64;84.32
58239;BME280;44037;55.638;37.356;2022-11-20T09:13:58;99531.97;;;-0.65;84.46
58239;BME280;44037;55.638;37.356;2022-11-20T09:16:25;99534.50;;;-0.65;84.44
58239;BME280;44037;55.638;37.356;2022-11-20T09:18:52;99529.50;;;-0.64;84.98
58239;BME280;44037;55.638;37.356;2022-11-20T09:21:22;99534.81;;;-0.59;85.20
58239;BME280;44037;55.638;37.356;2022-11-20T09:23:50;99545.00;;;-0.59;84.88
58239;BME280;44037;55.638;37.356;2022-11-20T09:26:18;99557.72;;;-0.59;85.25
58239;BME280;44037;55.638;37.356;2022-11-20T09:28:46;99564.56;;;-0.58;85.31
58239;BME280;44037;55.638;37.356;2022-11-20T09:31:21;99560.59;;;-0.53;86.00
58239;BME280;44037;55.638;37.356;2022-11-20T09:33:49;99568.47;;;-0.48;85.46
58239;BME280;44037;55.638;37.356;2022-11-20T09:36:16;99562.66;;;-0.45;85.81
58239;BME280;44037;55.638;37.356;2022-11-20T09:38:44;99558.81;;;-0.37;85.87
58239;BME280;44037;55.638;37.356;2022-11-20T09:41:26;99558.44;;;-0.28;85.93
58239;BME280;44037;55.638;37.356;2022-11-20T09:44:01;99551.97;;;-0.22;86.33
58239;BME280;44037;55.638;37.356;2022-11-20T09:46:37;99553.97;;;-0.16;86.55
58239;BME280;44037;55.638;37.356;2022-11-20T09:49:19;99555.16;;;-0.09;86.28
58239;BME280;44037;55.638;37.356;2022-11-20T09:51:57;99554.59;;;-0.04;86.27
58239;BME280;44037;55.638;37.356;2022-11-20T09:54:27;99555.53;;;-0.02;86.57
58239;BME280;44037;55.638;37.356;2022-11-20T09:56:59;99553.78;;;-0.03;86.77
58239;BME280;44037;55.638;37.356;2022-11-20T09:59:36;99557.06;;;-0.05;86.86
58239;BME280;44037;55.638;37.356;2022-11-20T10:02:15;99554.50;;;-0.05;86.85
58239;BME280;44037;55.638;37.356;2022-11-20T10:04:46;99565.50;;;-0.06;86.95
58239;BME280;44037;55.638;37.356;2022-11-20T10:07:19;99577.59;;;-0.02;86.88
58239;BME280;44037;55.638;37.356;2022-11-20T10:09:52;99571.31;;;-0.09;86.32
58239;BME280;44037;55.638;37.356;2022-11-20T10:12:27;99564.16;;;-0.16;86.44
58239;BME280;44037;55.638;37.356;2022-11-20T10:15:10;99565.50;;;-0.23;86.57
58239;BME280;44037;55.638;37.356;2022-11-20T10:17:58;99571.88;;;-0.31;86.42
58239;BME280;44037;55.638;37.356;2022-11-20T10:20:35;99579.19;;;-0.37;86.57
58239;BME280;44037;55.638;37.356;2022-11-20T10:23:21;99582.00;;;-0.49;86.53
58239;BME280;44037;55.638;37.356;2022-11-20T10:25:52;99578.88;;;-0.60;86.16
58239;BME280;44037;55.638;37.356;2022-11-20T10:28:34;99582.53;;;-0.71;85.93
58239;BME280;44037;55.638;37.356;2022-11-20T10:31:14;99586.22;;;-0.81;86.11
58239;BME280;44037;55.638;37.356;2022-11-20T10:33:45;99587.69;;;-0.86;86.34
58239;BME280;44037;55.638;37.356;2022-11-20T10:36:19;99576.28;;;-0.93;86.65
58239;BME280;44037;55.638;37.356;2022-11-20T10:38:51;99593.84;;;-0.98;86.07
58239;BME280;44037;55.638;37.356;2022-11-20T10:41:26;99596.03;;;-1.04;86.61
58239;BME280;44037;55.638;37.356;2022-11-20T10:44:02;99598.25;;;-1.10;86.65
58239;BME280;44037;55.638;37.356;2022-11-20T10:46:36;99592.22;;;-1.12;86.62
58239;BME280;44037;55.638;37.356;2022-11-20T10:49:09;99602.63;;;-1.08;87.74
58239;BME280;44037;55.638;37.356;2022-11-20T10:51:48;99612.44;;;-0.99;87.55
58239;BME280;44037;55.638;37.356;2022-11-20T10:54:23;99615.31;;;-0.93;87.79
58239;BME280;44037;55.638;37.356;2022-11-20T10:57:00;99607.78;;;-0.91;87.30
58239;BME280;44037;55.638;37.356;2022-11-20T10:59:49;99612.06;;;-0.90;87.79
58239;BME280;44037;55.638;37.356;2022-11-20T11:02:34;99618.03;;;-0.89;87.46
58239;BME280;44037;55.638;37.356;2022-11-20T11:05:10;99624.63;;;-0.93;86.91
58239;BME280;44037;55.638;37.356;2022-11-20T11:07:39;99630.06;;;-1.02;86.08
58239;BME280;44037;55.638;37.356;2022-11-20T11:10:15;99632.13;;;-1.11;85.97
58239;BME280;44037;55.638;37.356;2022-11-20T11:12:45;99627.47;;;-1.18;85.87
58239;BME280;44037;55.638;37.356;2022-11-20T11:15:25;99623.16;;;-1.19;86.38
58239;BME280;44037;55.638;37.356;2022-11-20T11:17:52;99630.91;;;-1.18;86.39
58239;BME280;44037;55.638;37.356;2022-11-20T11:20:21;99629.31;;;-1.16;85.85
58239;BME280;44037;55.638;37.356;2022-11-20T11:22:50;99624.38;;;-1.13;85.71
58239;BME280;44037;55.638;37.356;2022-11-20T11:25:29;99634.56;;;-1.13;85.52
58239;BME280;44037;55.638;37.356;2022-11-20T11:28:01;99632.00;;;-1.13;85.85
58239;BME280;44037;55.638;37.356;2022-11-20T11:30:42;99626.13;;;-1.12;85.75
58239;BME280;44037;55.638;37.356;2022-11-20T11:33:10;99633.22;;;-1.06;85.82
58239;BME280;44037;55.638;37.356;2022-11-20T11:35:44;99632.53;;;-1.03;85.21
58239;BME280;44037;55.638;37.356;2022-11-20T11:38:15;99627.22;;;-1.08;84.10
58239;BME280;44037;55.638;37.356;2022-11-20T11:40:43;99625.19;;;-1.14;84.41
58239;BME280;44037;55.638;37.356;2022-11-20T11:43:18;99628.53;;;-1.15;84.40
58239;BME280;44037;55.638;37.356;2022-11-20T11:46:09;99638.59;;;-1.16;84.18
58239;BME280;44037;55.638;37.356;2022-11-20T11:48:55;99634.22;;;-1.19;83.88
58239;BME280;44037;55.638;37.356;2022-11-20T11:51:24;99635.63;;;-1.24;83.35
58239;BME280;44037;55.638;37.356;2022-11-20T11:53:56;99638.88;;;-1.27;83.37
58239;BME280;44037;55.638;37.356;2022-11-20T11:56:25;99648.88;;;-1.30;83.62
58239;BME280;44037;55.638;37.356;2022-11-20T11:58:57;99648.78;;;-1.31;83.49
58239;BME280;44037;55.638;37.356;2022-11-20T12:01:32;99643.72;;;-1.31;83.46
58239;BME280;44037;55.638;37.356;2022-11-20T12:04:04;99637.47;;;-1.36;83.16
58239;BME280;44037;55.638;37.356;2022-11-20T12:06:36;99637.94;;;-1.44;82.86
58239;BME280;44037;55.638;37.356;2022-11-20T12:09:09;99642.56;;;-1.51;82.65
58239;BME280;44037;55.638;37.356;2022-11-20T12:11:43;99644.06;;;-1.55;82.45
58239;BME280;44037;55.638;37.356;2022-11-20T12:14:16;99645.63;;;-1.57;83.01
58239;BME280;44037;55.638;37.356;2022-11-20T12:16:51;99651.06;;;-1.51;83.46
58239;BME280;44037;55.638;37.356;2022-11-20T12:19:21;99643.53;;;-1.49;82.88
58239;BME280;44037;55.638;37.356;2022-11-20T12:21:55;99644.31;;;-1.50;82.80
58239;BME280;44037;55.638;37.356;2022-11-20T12:24:44;99641.59;;;-1.53;82.05
58239;BME280;44037;55.638;37.356;2022-11-20T12:27:39;99631.78;;;-1.62;82.14
58239;BME280;44037;55.638;37.356;2022-11-20T12:30:09;99639.25;;;-1.65;82.20
58239;BME280;44037;55.638;37.356;2022-11-20T12:35:55;99639.84;;;-1.70;82.49
58239;BME280;44037;55.638;37.356;2022-11-20T12:38:39;99633.53;;;-1.76;82.19
58239;BME280;44037;55.638;37.356;2022-11-20T12:41:17;99637.91;;;-1.74;82.55
58239;BME280;44037;55.638;37.356;2022-11-20T12:44:16;99636.53;;;-1.68;82.90
58239;BME280;44037;55.638;37.356;2022-11-20T12:47:20;99639.41;;;-1.62;83.20
58239;BME280;44037;55.638;37.356;2022-11-20T12:49:58;99652.41;;;-1.58;82.84
58239;BME280;44037;55.638;37.356;2022-11-20T12:52:38;99656.66;;;-1.57;82.98
58239;BME280;44037;55.638;37.356;2022-11-20T12:55:32;99664.91;;;-1.61;82.86
58239;BME280;44037;55.638;37.356;2022-11-20T12:58:11;99663.88;;;-1.64;82.78
58239;BME280;44037;55.638;37.356;2022-11-20T13:00:47;99668.06;;;-1.65;82.52
58239;BME280;44037;55.638;37.356;2022-11-20T13:04:59;99669.34;;;-1.72;82.85
58239;BME280;44037;55.638;37.356;2022-11-20T13:07:33;99671.63;;;-1.76;82.56
58239;BME280;44037;55.638;37.356;2022-11-20T13:10:02;99675.66;;;-1.80;82.36
58239;BME280;44037;55.638;37.356;2022-11-20T13:12:34;99672.06;;;-1.83;82.39